createdAt,value
2022-12-03T00:00:31.949Z,-0.40
2022-12-03T00:03:00.058Z,-0.40
2022-12-03T00:05:26.976Z,-0.40
2022-12-03T00:07:55.179Z,-0.40
2022-12-03T00:10:22.029Z,-0.40
2022-12-03T00:12:52.188Z,-0.40
2022-12-03T00:15:19.116Z,-0.40
2022-12-03T00:17:47.107Z,-0.40
2022-12-03T00:20:23.184Z,-0.40
2022-12-03T00:22:51.442Z,-0.50
2022-12-03T00:25:18.324Z,-0.50
2022-12-03T00:27:47.223Z,-0.50
2022-12-03T00:30:16.611Z,-0.50
2022-12-03T00:32:43.529Z,-0.50
2022-12-03T00:35:10.315Z,-0.50
2022-12-03T00:37:37.204Z,-0.50
2022-12-03T00:40:06.350Z,-0.50
2022-12-03T00:42:33.151Z,-0.50
2022-12-03T00:45:01.215Z,-0.50
2022-12-03T00:47:28.128Z,-0.50
2022-12-03T00:49:56.191Z,-0.50
2022-12-03T00:52:23.050Z,-0.50
2022-12-03T00:54:51.394Z,-0.50
2022-12-03T00:57:18.526Z,-0.50
2022-12-03T00:59:46.548Z,-0.50
2022-12-03T01:02:13.402Z,-0.50
2022-12-03T01:04:42.329Z,-0.50
2022-12-03T01:07:09.126Z,-0.50
2022-12-03T01:09:37.106Z,-0.60
2022-12-03T01:12:04.033Z,-0.50
2022-12-03T01:14:30.999Z,-0.50
2022-12-03T01:16:59.031Z,-0.50
2022-12-03T01:19:25.844Z,-0.50
2022-12-03T01:21:52.731Z,-0.60
2022-12-03T01:24:21.638Z,-0.60
2022-12-03T01:26:48.530Z,-0.60
2022-12-03T01:29:17.392Z,-0.60
2022-12-03T01:32:03.002Z,-0.50
2022-12-03T01:34:31.294Z,-0.50
2022-12-03T01:36:58.122Z,-0.50
2022-12-03T01:39:26.445Z,-0.50
2022-12-03T01:41:55.339Z,-0.50
2022-12-03T01:44:32.443Z,-0.50
2022-12-03T01:47:02.962Z,-0.50
2022-12-03T01:49:39.169Z,-0.50
2022-12-03T01:52:13.588Z,-0.50
2022-12-03T01:54:46.369Z,-0.50
2022-12-03T01:57:30.596Z,-0.50
2022-12-03T01:59:59.632Z,-0.50
2022-12-03T02:02:32.851Z,-0.50
2022-12-03T02:05:01.399Z,-0.50
2022-12-03T02:07:34.163Z,-0.50
2022-12-03T02:10:02.793Z,-0.50
2022-12-03T02:12:42.460Z,-0.50
2022-12-03T02:15:12.945Z,-0.50
2022-12-03T02:17:41.854Z,-0.50
2022-12-03T02:20:11.270Z,-0.50
2022-12-03T02:23:01.018Z,-0.50
2022-12-03T02:25:31.993Z,-0.50
2022-12-03T02:28:01.895Z,-0.50
2022-12-03T02:30:32.003Z,-0.60
2022-12-03T02:32:59.189Z,-0.60
2022-12-03T02:35:28.740Z,-0.60
2022-12-03T02:38:12.026Z,-0.60
2022-12-03T02:40:41.602Z,-0.60
2022-12-03T02:43:10.834Z,-0.60
2022-12-03T02:45:40.791Z,-0.60
2022-12-03T02:48:19.074Z,-0.60
2022-12-03T02:50:53.452Z,-0.60
2022-12-03T02:53:25.002Z,-0.60
2022-12-03T02:55:56.054Z,-0.60
2022-12-03T02:58:25.681Z,-0.60
2022-12-03T03:00:54.371Z,-0.60
2022-12-03T03:03:23.950Z,-0.60
2022-12-03T03:05:53.734Z,-0.60
2022-12-03T03:08:20.601Z,-0.60
2022-12-03T03:10:48.058Z,-0.60
2022-12-03T03:13:18.203Z,-0.60
2022-12-03T03:15:46.901Z,-0.60
2022-12-03T03:18:15.312Z,-0.70
2022-12-03T03:20:44.236Z,-0.70
2022-12-03T03:23:10.926Z,-0.70
2022-12-03T03:25:43.628Z,-0.70
2022-12-03T03:28:14.179Z,-0.70
2022-12-03T03:30:43.563Z,-0.70
2022-12-03T03:33:13.954Z,-0.70
2022-12-03T03:35:43.334Z,-0.70
2022-12-03T03:38:10.793Z,-0.70
2022-12-03T03:40:39.701Z,-0.70
2022-12-03T03:43:07.245Z,-0.70
2022-12-03T03:45:35.791Z,-0.70
2022-12-03T03:48:02.898Z,-0.70
2022-12-03T03:50:31.616Z,-0.70
2022-12-03T03:53:01.402Z,-0.80
2022-12-03T03:55:29.038Z,-0.70
2022-12-03T03:57:57.222Z,-0.70
2022-12-03T04:00:24.150Z,-0.70
2022-12-03T04:02:55.551Z,-0.80
2022-12-03T04:05:24.368Z,-0.70
2022-12-03T04:07:51.372Z,-0.70
2022-12-03T04:10:37.002Z,-0.80
2022-12-03T04:13:04.642Z,-0.70
2022-12-03T04:15:31.782Z,-0.70
2022-12-03T04:18:19.657Z,-0.70
2022-12-03T04:20:47.758Z,-0.70
2022-12-03T04:23:14.500Z,-0.70
2022-12-03T04:26:00.876Z,-0.70
2022-12-03T04:28:47.270Z,-0.70
2022-12-03T04:31:32.591Z,-0.70
2022-12-03T04:34:19.261Z,-0.80
2022-12-03T04:36:47.837Z,-0.80
2022-12-03T04:39:15.858Z,-0.80
2022-12-03T04:41:43.774Z,-0.80
2022-12-03T04:44:30.164Z,-0.80
2022-12-03T04:46:56.969Z,-0.80
2022-12-03T04:49:25.102Z,-0.80
2022-12-03T04:51:53.157Z,-0.80
2022-12-03T04:54:21.600Z,-0.80
2022-12-03T04:56:48.446Z,-0.80
2022-12-03T04:59:16.532Z,-0.80
2022-12-03T05:01:45.494Z,-0.80
2022-12-03T05:04:14.508Z,-0.80
2022-12-03T05:06:43.304Z,-0.80
2022-12-03T05:09:10.593Z,-0.80
2022-12-03T05:11:39.326Z,-0.80
2022-12-03T05:14:06.759Z,-0.80
2022-12-03T05:16:33.629Z,-0.80
2022-12-03T05:19:01.055Z,-0.80
2022-12-03T05:21:29.249Z,-0.80
2022-12-03T05:23:56.038Z,-0.80
2022-12-03T05:26:23.215Z,-0.80
2022-12-03T05:28:51.966Z,-0.80
2022-12-03T05:31:20.055Z,-0.80
2022-12-03T05:33:47.076Z,-0.90
2022-12-03T05:36:15.295Z,-0.90
2022-12-03T05:38:43.316Z,-0.90
2022-12-03T05:41:28.651Z,-0.90
2022-12-03T05:43:55.540Z,-0.80
2022-12-03T05:46:22.421Z,-0.90
2022-12-03T05:48:49.255Z,-0.90
2022-12-03T05:51:17.952Z,-0.80
2022-12-03T05:53:44.802Z,-0.80
2022-12-03T05:56:12.972Z,-0.80
2022-12-03T05:58:41.012Z,-0.90
2022-12-03T06:01:08.359Z,-0.80
2022-12-03T06:03:36.463Z,-0.80
2022-12-03T06:06:03.557Z,-0.90
2022-12-03T06:08:31.575Z,-0.90
2022-12-03T06:11:00.353Z,-0.90
2022-12-03T06:13:29.045Z,-0.90
2022-12-03T06:15:55.804Z,-0.90
2022-12-03T06:18:23.940Z,-0.90
2022-12-03T06:20:52.058Z,-0.90
2022-12-03T06:23:18.869Z,-0.90
2022-12-03T06:25:45.693Z,-0.90
2022-12-03T06:28:12.508Z,-0.90
2022-12-03T06:30:41.320Z,-0.90
2022-12-03T06:33:08.225Z,-0.90
2022-12-03T06:35:37.528Z,-0.90
2022-12-03T06:38:04.664Z,-0.90
2022-12-03T06:40:33.229Z,-0.90
2022-12-03T06:43:02.338Z,-0.90
2022-12-03T06:45:29.230Z,-0.90
2022-12-03T06:47:57.129Z,-0.90
2022-12-03T06:50:23.896Z,-0.90
2022-12-03T06:52:53.933Z,-0.90
2022-12-03T06:55:25.350Z,-0.90
2022-12-03T06:57:54.389Z,-0.90
2022-12-03T07:00:21.578Z,-0.90
2022-12-03T07:02:51.300Z,-0.90
2022-12-03T07:05:18.113Z,-0.90
2022-12-03T07:07:52.010Z,-0.90
2022-12-03T07:10:20.197Z,-0.90
2022-12-03T07:12:47.207Z,-0.90
2022-12-03T07:15:15.286Z,-0.90
2022-12-03T07:17:42.094Z,-0.90
2022-12-03T07:20:09.582Z,-0.90
2022-12-03T07:22:36.380Z,-0.90
2022-12-03T07:25:03.585Z,-0.90
2022-12-03T07:27:31.615Z,-0.90
2022-12-03T07:30:00.301Z,-0.90
2022-12-03T07:32:28.378Z,-0.90
2022-12-03T07:34:55.530Z,-0.90
2022-12-03T07:37:24.286Z,-0.90
2022-12-03T07:39:52.561Z,-0.90
2022-12-03T07:42:20.820Z,-0.90
2022-12-03T07:44:51.641Z,-0.90
2022-12-03T07:47:18.924Z,-0.90
2022-12-03T07:49:47.021Z,-0.90
2022-12-03T07:52:13.759Z,-0.90
2022-12-03T07:54:41.723Z,-0.90
2022-12-03T07:57:08.570Z,-0.90
2022-12-03T07:59:35.294Z,-0.90
2022-12-03T08:02:02.661Z,-0.90
2022-12-03T08:04:29.551Z,-0.90
2022-12-03T08:06:56.529Z,-0.80
2022-12-03T08:09:23.411Z,-0.80
2022-12-03T08:11:52.005Z,-0.80
2022-12-03T08:14:21.812Z,-0.80
2022-12-03T08:16:50.565Z,-0.80
2022-12-03T08:19:18.396Z,-0.80
2022-12-03T08:21:45.788Z,-0.80
2022-12-03T08:24:21.095Z,-0.80
2022-12-03T08:26:49.865Z,-0.80
2022-12-03T08:29:19.118Z,-0.80
2022-12-03T08:31:54.721Z,-0.80
2022-12-03T08:34:26.114Z,-0.80
2022-12-03T08:37:06.436Z,-0.80
2022-12-03T08:39:40.543Z,-0.80
2022-12-03T08:42:28.022Z,-0.90
2022-12-03T08:44:57.181Z,-0.80
2022-12-03T08:47:24.804Z,-0.90
2022-12-03T08:50:03.278Z,-0.80
2022-12-03T08:52:33.599Z,-0.80
2022-12-03T08:55:23.221Z,-0.80
2022-12-03T08:57:51.774Z,-0.80
2022-12-03T09:00:23.875Z,-0.80
2022-12-03T09:02:53.900Z,-0.80
2022-12-03T09:05:29.227Z,-0.80
2022-12-03T09:07:59.387Z,-0.80
2022-12-03T09:10:26.192Z,-0.80
2022-12-03T09:12:54.174Z,-0.80
2022-12-03T09:15:20.897Z,-0.80
2022-12-03T09:17:52.066Z,-0.80
2022-12-03T09:20:18.834Z,-0.80
2022-12-03T09:22:45.697Z,-0.80
2022-12-03T09:25:13.705Z,-0.80
2022-12-03T09:27:40.473Z,-0.80
2022-12-03T09:30:08.889Z,-0.80
2022-12-03T09:32:36.934Z,-0.70
2022-12-03T09:35:05.333Z,-0.70
2022-12-03T09:37:32.157Z,-0.70
2022-12-03T09:39:59.097Z,-0.80
2022-12-03T09:42:26.137Z,-0.70
2022-12-03T09:44:55.055Z,-0.70
2022-12-03T09:47:23.381Z,-0.70
2022-12-03T09:49:52.926Z,-0.70
2022-12-03T09:52:25.697Z,-0.70
2022-12-03T09:54:55.196Z,-0.70
2022-12-03T09:57:23.526Z,-0.70
2022-12-03T09:59:50.428Z,-0.70
2022-12-03T10:02:27.004Z,-0.70
2022-12-03T10:04:58.239Z,-0.80
2022-12-03T10:07:25.850Z,-0.70
2022-12-03T10:09:53.533Z,-0.70
2022-12-03T10:12:24.375Z,-0.70
2022-12-03T10:14:55.833Z,-0.70
2022-12-03T10:17:22.876Z,-0.70
2022-12-03T10:19:50.972Z,-0.70
2022-12-03T10:22:17.893Z,-0.70
2022-12-03T10:24:45.107Z,-0.70
2022-12-03T10:27:24.063Z,-0.70
2022-12-03T10:29:58.087Z,-0.70
2022-12-03T10:32:29.012Z,-0.70
2022-12-03T10:35:28.074Z,-0.70
2022-12-03T10:38:21.357Z,-0.60
2022-12-03T10:40:50.267Z,-0.60
2022-12-03T10:43:22.665Z,-0.60
2022-12-03T10:46:02.003Z,-0.60
2022-12-03T10:48:31.803Z,-0.60
2022-12-03T10:51:10.515Z,-0.60
2022-12-03T10:53:40.232Z,-0.60
2022-12-03T10:56:14.974Z,-0.60
2022-12-03T10:58:42.117Z,-0.60
2022-12-03T11:01:17.755Z,-0.60
2022-12-03T11:03:47.550Z,-0.60
2022-12-03T11:06:17.161Z,-0.60
2022-12-03T11:08:48.274Z,-0.60
2022-12-03T11:11:21.175Z,-0.60
2022-12-03T11:13:52.838Z,-0.60
2022-12-03T11:16:42.327Z,-0.60
2022-12-03T11:19:13.577Z,-0.70
2022-12-03T11:22:05.402Z,-0.60
2022-12-03T11:24:36.890Z,-0.60
2022-12-03T11:27:06.765Z,-0.60
2022-12-03T11:29:47.076Z,-0.60
2022-12-03T11:32:40.262Z,-0.60
2022-12-03T11:35:38.218Z,-0.60
2022-12-03T11:38:52.232Z,-0.60
2022-12-03T11:41:31.355Z,-0.60
2022-12-03T11:44:23.665Z,-0.60
2022-12-03T11:46:52.188Z,-0.60
2022-12-03T11:49:32.712Z,-0.60
2022-12-03T11:52:02.577Z,-0.60
2022-12-03T11:54:35.573Z,-0.60
2022-12-03T11:57:04.163Z,-0.60
2022-12-03T11:59:30.947Z,-0.60
2022-12-03T12:01:59.326Z,-0.60
2022-12-03T12:04:37.847Z,-0.60
2022-12-03T12:07:06.188Z,-0.60
2022-12-03T12:09:55.170Z,-0.60
2022-12-03T12:12:44.399Z,-0.60
2022-12-03T12:15:44.648Z,-0.50
2022-12-03T12:18:36.220Z,-0.50
2022-12-03T12:21:42.953Z,-0.50
2022-12-03T12:24:52.383Z,-0.50
2022-12-03T12:27:45.432Z,-0.50
2022-12-03T12:30:18.730Z,-0.50
2022-12-03T12:32:52.184Z,-0.50
2022-12-03T12:35:30.473Z,-0.40
2022-12-03T12:38:10.715Z,-0.40
2022-12-03T12:40:45.771Z,-0.40
2022-12-03T12:43:35.878Z,-0.40
2022-12-03T12:49:15.133Z,-0.40
2022-12-03T12:51:49.235Z,-0.40
2022-12-03T12:54:19.323Z,-0.40
2022-12-03T12:56:51.457Z,-0.30
2022-12-03T12:59:23.088Z,-0.30
2022-12-03T13:01:50.710Z,-0.30
2022-12-03T13:04:21.608Z,-0.40
2022-12-03T13:06:51.162Z,-0.40
2022-12-03T13:09:25.740Z,-0.40
2022-12-03T13:12:04.020Z,-0.40
2022-12-03T13:14:38.266Z,-0.40
2022-12-03T13:17:25.920Z,-0.40
2022-12-03T13:20:05.433Z,-0.30
2022-12-03T13:22:35.372Z,-0.40
2022-12-03T13:25:59.218Z,-0.30
2022-12-03T13:28:24.472Z,-0.40
2022-12-03T13:30:52.559Z,-0.40
2022-12-03T13:33:26.467Z,-0.40
2022-12-03T13:35:56.575Z,-0.40
2022-12-03T13:38:25.809Z,-0.40
2022-12-03T13:41:01.455Z,-0.40
2022-12-03T13:43:33.130Z,-0.40
2022-12-03T13:46:01.619Z,-0.40
2022-12-03T13:48:35.799Z,-0.40
2022-12-03T13:51:36.983Z,-0.50
2022-12-03T13:54:14.404Z,-0.50
2022-12-03T13:56:43.063Z,-0.50
2022-12-03T13:59:10.019Z,-0.50
2022-12-03T14:01:37.585Z,-0.50
2022-12-03T14:04:06.448Z,-0.50
2022-12-03T14:06:33.637Z,-0.50
2022-12-03T14:09:00.857Z,-0.50
2022-12-03T14:11:47.751Z,-0.50
2022-12-03T14:14:14.634Z,-0.50
2022-12-03T14:16:41.502Z,-0.50
2022-12-03T14:19:10.467Z,-0.50
2022-12-03T14:21:38.595Z,-0.50
2022-12-03T14:24:05.886Z,-0.50
2022-12-03T14:26:33.520Z,-0.50
2022-12-03T14:29:03.463Z,-0.60
2022-12-03T14:31:32.811Z,-0.60
2022-12-03T14:33:59.603Z,-0.60
2022-12-03T14:36:30.634Z,-0.60
2022-12-03T14:38:57.421Z,-0.60
2022-12-03T14:41:44.234Z,-0.60
2022-12-03T14:44:12.366Z,-0.60
2022-12-03T14:46:39.179Z,-0.60
2022-12-03T14:49:07.477Z,-0.70
2022-12-03T14:51:34.471Z,-0.70
2022-12-03T14:54:02.808Z,-0.70
2022-12-03T14:56:29.557Z,-0.70
2022-12-03T14:58:56.367Z,-0.70
2022-12-03T15:01:23.199Z,-0.70
2022-12-03T15:03:51.278Z,-0.70
2022-12-03T15:06:19.498Z,-0.70
2022-12-03T15:08:46.304Z,-0.70
2022-12-03T15:11:13.699Z,-0.70
2022-12-03T15:13:40.454Z,-0.70
2022-12-03T15:16:08.428Z,-0.70
2022-12-03T15:18:36.466Z,-0.70
2022-12-03T15:21:04.814Z,-0.70
2022-12-03T15:23:33.757Z,-0.80
2022-12-03T15:26:01.885Z,-0.70
2022-12-03T15:28:28.687Z,-0.80
2022-12-03T15:30:55.734Z,-0.80
2022-12-03T15:33:24.897Z,-0.80
2022-12-03T15:35:52.099Z,-0.80
2022-12-03T15:38:20.215Z,-0.80
2022-12-03T15:40:47.098Z,-0.80
2022-12-03T15:43:15.568Z,-0.80
2022-12-03T15:45:42.433Z,-0.80
2022-12-03T15:48:09.208Z,-0.80
2022-12-03T15:50:40.072Z,-0.80
2022-12-03T15:53:08.536Z,-0.80
2022-12-03T15:55:35.306Z,-0.80
2022-12-03T15:58:03.694Z,-0.80
2022-12-03T16:00:31.891Z,-0.80
2022-12-03T16:03:01.872Z,-0.80
2022-12-03T16:05:30.635Z,-0.80
2022-12-03T16:07:57.576Z,-0.80
2022-12-03T16:10:24.484Z,-0.80
2022-12-03T16:12:52.745Z,-0.80
2022-12-03T16:15:25.137Z,-0.80
2022-12-03T16:17:54.853Z,-0.80
2022-12-03T16:20:24.589Z,-0.80
2022-12-03T16:22:52.122Z,-0.80
2022-12-03T16:25:19.254Z,-0.80
2022-12-03T16:27:46.173Z,-0.80
2022-12-03T16:30:13.279Z,-0.80
2022-12-03T16:32:40.339Z,-0.80
2022-12-03T16:35:07.437Z,-0.80
2022-12-03T16:37:35.773Z,-0.80
2022-12-03T16:40:04.285Z,-0.80
2022-12-03T16:42:31.028Z,-0.80
2022-12-03T16:44:57.832Z,-0.80
2022-12-03T16:47:30.632Z,-0.80
2022-12-03T16:50:03.306Z,-0.80
2022-12-03T16:52:30.072Z,-0.80
2022-12-03T16:54:56.889Z,-0.90
2022-12-03T16:57:24.930Z,-0.90
2022-12-03T16:59:54.813Z,-0.90
2022-12-03T17:02:21.860Z,-0.90
2022-12-03T17:04:51.131Z,-0.90
2022-12-03T17:07:17.910Z,-0.90
2022-12-03T17:09:44.714Z,-0.90
2022-12-03T17:12:12.773Z,-0.90
2022-12-03T17:14:39.608Z,-0.90
2022-12-03T17:17:06.392Z,-0.90
2022-12-03T17:19:34.918Z,-0.90
2022-12-03T17:22:01.720Z,-0.90
2022-12-03T17:24:28.637Z,-0.90
2022-12-03T17:26:56.706Z,-0.90
2022-12-03T17:29:24.758Z,-0.90
2022-12-03T17:31:51.567Z,-0.90
2022-12-03T17:34:18.446Z,-0.90
2022-12-03T17:36:46.957Z,-0.90
2022-12-03T17:39:15.009Z,-0.90
2022-12-03T17:41:41.911Z,-0.90
2022-12-03T17:44:11.343Z,-0.90
2022-12-03T17:46:39.831Z,-0.90
2022-12-03T17:49:07.937Z,-0.90
2022-12-03T17:51:34.752Z,-0.90
2022-12-03T17:54:02.951Z,-0.90
2022-12-03T17:56:29.771Z,-0.90
2022-12-03T17:58:58.366Z,-0.90
2022-12-03T18:01:25.924Z,-0.90
2022-12-03T18:03:54.156Z,-0.90
2022-12-03T18:06:21.980Z,-0.90
2022-12-03T18:08:48.988Z,-1.00
2022-12-03T18:11:17.403Z,-0.90
2022-12-03T18:13:44.134Z,-0.90
2022-12-03T18:16:12.344Z,-0.90
2022-12-03T18:18:41.171Z,-0.90
2022-12-03T18:21:09.124Z,-0.80
2022-12-03T18:23:36.080Z,-0.90
2022-12-03T18:26:04.703Z,-0.90
2022-12-03T18:28:31.758Z,-0.80
2022-12-03T18:31:00.735Z,-0.90
2022-12-03T18:33:28.170Z,-0.90
2022-12-03T18:35:57.243Z,-0.90
2022-12-03T18:38:29.170Z,-0.90
2022-12-03T18:40:57.788Z,-0.90
2022-12-03T18:43:27.940Z,-0.90
2022-12-03T18:45:54.997Z,-0.90
2022-12-03T18:48:23.068Z,-0.90
2022-12-03T18:50:51.194Z,-0.90
2022-12-03T18:53:19.465Z,-1.00
2022-12-03T18:55:47.505Z,-0.90
2022-12-03T18:58:19.464Z,-0.90
2022-12-03T19:00:46.404Z,-0.90
2022-12-03T19:03:13.343Z,-0.90
2022-12-03T19:05:43.333Z,-0.90
2022-12-03T19:08:14.755Z,-0.90
2022-12-03T19:10:42.905Z,-0.90
2022-12-03T19:13:09.838Z,-0.90
2022-12-03T19:15:38.924Z,-0.90
2022-12-03T19:18:08.507Z,-0.90
2022-12-03T19:20:40.513Z,-0.90
2022-12-03T19:23:09.868Z,-0.90
2022-12-03T19:25:36.739Z,-0.90
2022-12-03T19:28:05.308Z,-0.90
2022-12-03T19:30:34.888Z,-0.90
2022-12-03T19:33:01.642Z,-0.90
2022-12-03T19:35:28.522Z,-0.90
2022-12-03T19:37:55.810Z,-0.90
2022-12-03T19:40:23.876Z,-0.90
2022-12-03T19:42:52.087Z,-0.90
2022-12-03T19:45:20.225Z,-0.90
2022-12-03T19:47:47.014Z,-0.90
2022-12-03T19:50:23.035Z,-0.90
2022-12-03T19:52:50.557Z,-0.90
2022-12-03T19:55:19.435Z,-0.90
2022-12-03T19:57:47.720Z,-0.90
2022-12-03T20:00:15.279Z,-0.90
2022-12-03T20:02:44.617Z,-0.90
2022-12-03T20:05:11.463Z,-0.90
2022-12-03T20:07:38.297Z,-0.90
2022-12-03T20:10:07.075Z,-0.90
2022-12-03T20:12:35.081Z,-1.00
2022-12-03T20:15:01.861Z,-1.00
2022-12-03T20:17:32.285Z,-0.90
2022-12-03T20:19:59.104Z,-1.00
2022-12-03T20:22:27.159Z,-1.00
2022-12-03T20:24:55.698Z,-1.00
2022-12-03T20:27:26.492Z,-0.90
2022-12-03T20:29:53.551Z,-0.90
2022-12-03T20:32:20.568Z,-0.90
2022-12-03T20:34:48.516Z,-0.90
2022-12-03T20:37:19.689Z,-0.90
2022-12-03T20:39:50.227Z,-0.90
2022-12-03T20:42:18.340Z,-0.90
2022-12-03T20:44:46.469Z,-0.90
2022-12-03T20:47:13.244Z,-0.90
2022-12-03T20:49:41.550Z,-0.90
2022-12-03T20:52:08.462Z,-0.90
2022-12-03T20:54:36.564Z,-0.90
2022-12-03T20:57:05.102Z,-0.90
2022-12-03T20:59:33.621Z,-0.90
2022-12-03T21:02:03.445Z,-0.90
2022-12-03T21:04:30.350Z,-0.90
2022-12-03T21:06:58.457Z,-0.90
2022-12-03T21:09:25.309Z,-0.90
2022-12-03T21:11:52.434Z,-0.90
2022-12-03T21:14:20.514Z,-0.90
2022-12-03T21:19:38.193Z,-0.80
2022-12-03T21:22:05.858Z,-0.90
2022-12-03T21:24:33.013Z,-0.80
2022-12-03T21:27:01.550Z,-0.90
2022-12-03T21:29:28.360Z,-0.80
2022-12-03T21:31:55.216Z,-0.80
2022-12-03T21:34:21.985Z,-0.80
2022-12-03T21:36:50.661Z,-0.80
2022-12-03T21:39:20.528Z,-0.90
2022-12-03T21:42:34.947Z,-0.80
2022-12-03T21:44:36.686Z,-0.80
2022-12-03T21:47:09.453Z,-0.90
2022-12-03T21:49:41.167Z,-0.80
2022-12-03T21:52:07.934Z,-0.80
2022-12-03T21:54:34.787Z,-0.80
2022-12-03T21:57:01.491Z,-0.80
2022-12-03T21:59:29.545Z,-0.80
2022-12-03T22:01:56.400Z,-0.80
2022-12-03T22:04:23.282Z,-0.80
2022-12-03T22:06:51.226Z,-0.80
2022-12-03T22:09:26.167Z,-0.80
2022-12-03T22:11:57.057Z,-0.80
2022-12-03T22:14:23.825Z,-0.80
2022-12-03T22:16:50.630Z,-0.80
2022-12-03T22:19:19.862Z,-0.80
2022-12-03T22:21:47.867Z,-0.80
2022-12-03T22:24:14.596Z,-0.80
2022-12-03T22:26:44.966Z,-0.80
2022-12-03T22:29:11.955Z,-0.80
2022-12-03T22:31:40.857Z,-0.80
2022-12-03T22:34:07.613Z,-0.80
2022-12-03T22:36:36.062Z,-0.80
2022-12-03T22:39:05.208Z,-0.80
2022-12-03T22:41:31.959Z,-0.80
2022-12-03T22:43:59.061Z,-0.80
2022-12-03T22:46:27.755Z,-0.80
2022-12-03T22:48:54.508Z,-0.80
2022-12-03T22:51:25.852Z,-0.80
2022-12-03T22:53:54.445Z,-0.80
2022-12-03T22:56:22.301Z,-0.80
2022-12-03T22:58:49.774Z,-0.80
2022-12-03T23:01:28.562Z,-0.80
2022-12-03T23:03:57.112Z,-0.80
2022-12-03T23:06:24.572Z,-0.70
2022-12-03T23:08:51.938Z,-0.70
2022-12-03T23:11:19.541Z,-0.70
2022-12-03T23:13:48.391Z,-0.70
2022-12-03T23:16:22.202Z,-0.70
2022-12-03T23:18:50.534Z,-0.70
2022-12-03T23:21:25.387Z,-0.70
2022-12-03T23:23:58.001Z,-0.80
2022-12-03T23:26:24.854Z,-0.70
2022-12-03T23:28:51.782Z,-0.70
2022-12-03T23:31:24.620Z,-0.70
2022-12-03T23:33:52.228Z,-0.70
2022-12-03T23:36:22.123Z,-0.70
2022-12-03T23:38:50.231Z,-0.70
2022-12-03T23:41:20.701Z,-0.70
2022-12-03T23:43:48.970Z,-0.70
2022-12-03T23:46:24.477Z,-0.70
2022-12-03T23:48:58.402Z,-0.70
2022-12-03T23:51:26.572Z,-0.70
2022-12-03T23:53:55.597Z,-0.70
2022-12-03T23:56:28.240Z,-0.70
2022-12-03T23:58:58.314Z,-0.70
